San Andres, Argentina
Current Conditions -  °F | °C
As of 6:00 AM on Wednesday 26 Nov 2014 (Local Time) from SABE Reporting Station
Clear Clear  
Wind Chill: 64°   Ceiling: Unl
Heat Index: 64°   Visibility: 6mi
Dew Point: 54°   Wind: 6mph
Humidity: 68%   Direction: 90°E
Pressure: 29.97"   Gusts: NA
Location:  34.55°S, 58.53°W
Report Text: SABE 260900Z 09005KT CAVOK 18/12 Q1015
Loading
Personal Weather Stations






























Interactive Weather Map New forecast layout! Learn more

10-Day Weather Forecast

Advertisements
Track Severe Weather on mobile